This is the latest recevied weather packets stored in our database for station/object EA4URC-10. If no packets are shown the sender has not sent any weather packets the latest 10 day(s).
| Time | Temp. | Humidity | Pressure | Rain* | Wind** | Luminosity | Snow |
|---|---|---|---|---|---|---|---|
| 1777629802 | 20° C | 57% | 1035.8 hPa | - | - | - | - |
| 1777627999 | 18.33° C | 68% | 1035.8 hPa | - | - | - | - |
| 1777626206 | 15.56° C | 81% | 1035.8 hPa | - | - | - | - |
| 1777624404 | 15° C | 85% | 1035.4 hPa | - | - | - | - |
| 1777622604 | 14.44° C | 86% | 1035.2 hPa | - | - | - | - |
| 1777620803 | 12.22° C | 100% | 1035 hPa | - | - | - | - |
| 1777619003 | 11.67° C | 100% | 1034.8 hPa | - | - | - | - |
| 1777617202 | 10.56° C | 100% | 1034.5 hPa | - | - | - | - |
| 1777615403 | 10° C | 100% | 1034.5 hPa | - | - | - | - |
| 1777613601 | 10° C | 100% | 1034.3 hPa | - | - | - | - |
| 1777611801 | 9.44° C | 100% | 1034.1 hPa | - | - | - | - |
| 1777610000 | 9.44° C | 100% | 1033.8 hPa | - | - | - | - |
| 1777608199 | 8.89° C | 100% | 1033.8 hPa | - | - | - | - |
| 1777606399 | 8.89° C | 100% | 1033.8 hPa | - | - | - | - |
| 1777604598 | 8.89° C | 100% | 1033.8 hPa | - | - | - | - |
| 1777602806 | 8.89° C | 100% | 1033.8 hPa | - | - | - | - |
| 1777601005 | 8.89° C | 100% | 1033.7 hPa | - | - | - | - |
| 1777599205 | 9.44° C | 100% | 1033.9 hPa | - | - | - | - |
| 1777597404 | 9.44° C | 100% | 1033.9 hPa | - | - | - | - |
| 1777595604 | 10° C | 100% | 1034.1 hPa | - | - | - | - |
| 1777593806 | 10.56° C | 74% | 1033.9 hPa | - | - | - | - |
| 1777592000 | 11.67° C | 66% | 1033.9 hPa | - | - | - | - |
| 1777590199 | 11.11° C | 68% | 1033.7 hPa | - | - | - | - |
| 1777588401 | 11.11° C | 67% | 1033.7 hPa | - | - | - | - |
| 1777586598 | 11.11° C | 66% | 1033.8 hPa | - | - | - | - |
* Rain since midnight (hover to see other rain measurements)
** Current wind speed in m/s (hover to see current wind gust speed)